Time;durP1;ratioP1;P1;durP2;ratioP2;P2;SDS_P1;SDS_P2;PMS_P1;PMS_P2;Temp;Humidity;BMP_temperature;BMP_pressure;BME280_temperature;BME280_humidity;BME280_pressure;Samples;Min_cycle;Max_cycle;Signal;HPM_P1;HPM_P2
2021/07/11 00:01:09;;;;;;;4.40;1.27;;;16.60;99.90;;;;;;4994450;28;20488;-77
2021/07/11 00:03:36;;;;;;;4.90;1.50;;;16.60;99.90;;;;;;4994788;28;20439;-78
2021/07/11 00:06:03;;;;;;;4.10;1.30;;;16.50;99.90;;;;;;4994640;28;20452;-79
2021/07/11 00:08:31;;;;;;;3.20;1.20;;;16.30;99.90;;;;;;4994530;28;20484;-78
2021/07/11 00:10:59;;;;;;;3.37;1.20;;;16.40;99.90;;;;;;4994580;28;20452;-78
2021/07/11 00:13:26;;;;;;;4.00;1.23;;;16.30;99.90;;;;;;4994200;28;20452;-78
2021/07/11 00:15:52;;;;;;;4.87;2.03;;;16.30;99.90;;;;;;4994347;28;21033;-78
2021/07/11 00:18:19;;;;;;;3.50;1.47;;;16.30;99.90;;;;;;4994092;28;20460;-77
2021/07/11 00:20:46;;;;;;;3.57;1.33;;;16.30;99.90;;;;;;4994155;28;20441;-77
2021/07/11 00:23:13;;;;;;;4.30;1.27;;;16.30;99.90;;;;;;4994334;28;20455;-78
2021/07/11 00:25:39;;;;;;;4.83;1.40;;;16.40;99.90;;;;;;4994006;28;20449;-78
2021/07/11 00:28:07;;;;;;;3.20;1.10;;;16.40;99.90;;;;;;4994188;28;20477;-78
2021/07/11 00:30:34;;;;;;;3.40;1.20;;;16.50;99.90;;;;;;4994243;28;20452;-78
2021/07/11 00:33:01;;;;;;;3.30;1.10;;;16.40;99.90;;;;;;4994476;28;20456;-78
2021/07/11 00:35:28;;;;;;;4.43;1.33;;;16.40;99.90;;;;;;4993996;28;20484;-78
2021/07/11 00:37:55;;;;;;;4.33;1.80;;;16.40;99.90;;;;;;4993822;28;20460;-78
2021/07/11 00:40:21;;;;;;;5.33;1.20;;;16.50;99.90;;;;;;4993879;28;20963;-78
2021/07/11 00:42:48;;;;;;;3.97;1.10;;;16.50;99.90;;;;;;4994065;28;20454;-78
2021/07/11 00:45:17;;;;;;;3.27;1.10;;;16.50;99.90;;;;;;4993055;28;20437;-78
2021/07/11 00:47:44;;;;;;;5.17;1.20;;;16.50;99.90;;;;;;4993972;28;20449;-79
2021/07/11 00:50:14;;;;;;;3.97;1.17;;;16.60;99.90;;;;;;4993754;28;20437;-78
2021/07/11 00:52:41;;;;;;;3.70;1.30;;;16.60;99.90;;;;;;4993844;28;20452;-79
2021/07/11 00:55:08;;;;;;;4.50;1.27;;;16.60;99.90;;;;;;4993944;28;20467;-79
2021/07/11 00:57:36;;;;;;;3.90;1.10;;;16.60;99.90;;;;;;4993736;28;20445;-79
2021/07/11 01:00:06;;;;;;;6.10;1.47;;;16.60;99.90;;;;;;4993968;28;20451;-78
2021/07/11 01:02:39;;;;;;;4.80;1.17;;;16.50;99.90;;;;;;4993460;28;20991;-78
2021/07/11 01:05:09;;;;;;;6.03;1.43;;;16.50;99.90;;;;;;4993786;28;20457;-79
2021/07/11 01:07:41;;;;;;;6.27;1.30;;;16.50;99.90;;;;;;4993759;28;20808;-78
2021/07/11 01:10:12;;;;;;;4.77;1.37;;;16.50;99.90;;;;;;4993670;28;20798;-77
2021/07/11 01:12:45;;;;;;;5.40;1.13;;;16.30;99.90;;;;;;4993581;28;20917;-77
2021/07/11 01:15:12;;;;;;;4.23;1.57;;;16.30;99.90;;;;;;4993862;28;20433;-78
2021/07/11 01:17:42;;;;;;;4.63;1.70;;;16.20;99.90;;;;;;4993619;28;20488;-78
2021/07/11 01:20:23;;;;;;;6.20;1.90;;;16.00;99.90;;;;;;4993742;28;20453;-77
2021/07/11 01:22:54;;;;;;;4.87;1.70;;;15.90;99.90;;;;;;4993538;28;20433;-78
2021/07/11 01:25:42;;;;;;;3.27;1.33;;;15.80;99.90;;;;;;4993780;28;20527;-78
2021/07/11 01:28:12;;;;;;;2.60;1.47;;;15.80;99.90;;;;;;4993814;28;20468;-78
2021/07/11 01:30:39;;;;;;;2.97;1.50;;;15.70;99.90;;;;;;4993676;28;20445;-79
2021/07/11 01:33:07;;;;;;;2.30;1.40;;;15.60;99.90;;;;;;4993548;28;20451;-78
2021/07/11 01:35:36;;;;;;;3.10;1.83;;;15.60;99.90;;;;;;4993840;28;20449;-78
2021/07/11 01:38:03;;;;;;;4.43;1.90;;;15.60;99.90;;;;;;4993501;28;20468;-78
2021/07/11 01:40:31;;;;;;;3.33;1.93;;;15.60;99.90;;;;;;4993689;28;20456;-78
2021/07/11 01:42:59;;;;;;;3.40;1.80;;;15.60;99.90;;;;;;4993545;28;20444;-78
2021/07/11 01:45:27;;;;;;;3.33;1.60;;;15.60;99.90;;;;;;4994063;28;20448;-78
2021/07/11 01:47:55;;;;;;;4.07;1.70;;;15.60;99.90;;;;;;4993444;28;20460;-79
2021/07/11 01:50:22;;;;;;;2.77;1.53;;;15.50;99.90;;;;;;4993212;28;20443;-79
2021/07/11 01:52:50;;;;;;;6.17;1.90;;;15.50;99.90;;;;;;4993157;28;20452;-79
2021/07/11 01:55:18;;;;;;;3.93;1.83;;;15.60;99.90;;;;;;4993584;28;20471;-79
2021/07/11 01:57:45;;;;;;;3.30;1.87;;;15.60;99.90;;;;;;4996737;28;20492;-79
2021/07/11 02:00:16;;;;;;;2.87;1.53;;;15.60;99.90;;;;;;4997003;28;20456;-79
2021/07/11 02:02:43;;;;;;;3.40;1.47;;;15.60;99.90;;;;;;4996659;28;20850;-79
2021/07/11 02:05:12;;;;;;;4.33;1.83;;;15.70;99.90;;;;;;4996901;28;20459;-78
2021/07/11 02:07:39;;;;;;;3.37;1.70;;;15.60;99.90;;;;;;4996622;28;20475;-79
2021/07/11 02:10:07;;;;;;;3.53;1.50;;;15.60;99.90;;;;;;4996780;28;20459;-79
2021/07/11 02:12:40;;;;;;;3.27;1.80;;;15.60;99.90;;;;;;4996861;28;20524;-79
2021/07/11 02:15:08;;;;;;;4.20;2.10;;;15.60;99.90;;;;;;4996767;28;20444;-78
2021/07/11 02:17:39;;;;;;;3.20;1.40;;;15.50;99.90;;;;;;4996287;28;20845;-78
2021/07/11 02:20:08;;;;;;;2.43;1.60;;;15.50;99.90;;;;;;4996730;28;20455;-78
2021/07/11 02:22:36;;;;;;;4.37;1.93;;;15.40;99.90;;;;;;4996606;28;20432;-78
2021/07/11 02:25:04;;;;;;;3.63;2.10;;;15.40;99.90;;;;;;4996253;28;20440;-78
2021/07/11 02:27:31;;;;;;;2.97;1.50;;;15.40;99.90;;;;;;4996537;28;20471;-79
2021/07/11 02:29:58;;;;;;;2.43;1.43;;;15.40;99.90;;;;;;4996247;28;20517;-79
2021/07/11 02:32:27;;;;;;;3.43;1.50;;;15.30;99.90;;;;;;4996683;28;20460;-79
2021/07/11 02:34:55;;;;;;;4.60;1.70;;;15.30;99.90;;;;;;4996750;28;20547;-79
2021/07/11 02:37:23;;;;;;;7.60;2.03;;;15.30;99.90;;;;;;4995985;28;20511;-78
2021/07/11 02:39:52;;;;;;;3.53;1.87;;;15.30;99.90;;;;;;4996201;28;20472;-79
2021/07/11 02:42:22;;;;;;;3.10;1.60;;;15.30;99.90;;;;;;4996459;28;20515;-78
2021/07/11 02:44:53;;;;;;;3.20;1.70;;;15.30;99.90;;;;;;4996430;28;20452;-79
2021/07/11 02:47:25;;;;;;;4.20;2.07;;;15.30;99.90;;;;;;4995927;28;20417;-79
2021/07/11 02:49:57;;;;;;;2.70;1.67;;;15.30;99.90;;;;;;4996049;28;20495;-79
2021/07/11 02:52:26;;;;;;;3.97;2.00;;;15.30;99.90;;;;;;4996089;28;20459;-79
2021/07/11 02:55:05;;;;;;;4.27;1.80;;;15.30;99.90;;;;;;4996011;28;20459;-79
2021/07/11 02:57:33;;;;;;;3.60;1.83;;;15.30;99.90;;;;;;4996116;28;20472;-79
2021/07/11 03:00:01;;;;;;;4.07;2.00;;;15.30;99.90;;;;;;4995819;28;20468;-79
2021/07/11 03:02:29;;;;;;;3.73;1.80;;;15.30;99.90;;;;;;4995732;28;20476;-79
2021/07/11 03:04:59;;;;;;;5.30;2.10;;;15.30;99.90;;;;;;4995801;28;20449;-79
2021/07/11 03:07:26;;;;;;;3.20;1.80;;;15.30;99.90;;;;;;4994978;28;20448;-79
2021/07/11 03:09:52;;;;;;;4.13;1.80;;;15.30;99.90;;;;;;4995328;28;20476;-79
2021/07/11 03:12:20;;;;;;;4.10;1.77;;;15.30;99.90;;;;;;4995417;28;20429;-79
2021/07/11 03:14:49;;;;;;;2.87;1.73;;;15.20;99.90;;;;;;4995338;28;20944;-79
2021/07/11 03:17:20;;;;;;;3.67;2.27;;;15.20;99.90;;;;;;4995242;28;20472;-79
2021/07/11 03:19:50;;;;;;;4.80;2.57;;;15.20;99.90;;;;;;4995498;28;20472;-79
2021/07/11 03:22:21;;;;;;;4.43;2.20;;;15.10;99.90;;;;;;4995490;28;20449;-78
2021/07/11 03:24:48;;;;;;;4.27;2.00;;;15.10;99.90;;;;;;4995243;28;20417;-79
2021/07/11 03:27:16;;;;;;;4.13;2.37;;;15.20;99.90;;;;;;4995369;28;20447;-79
2021/07/11 03:29:53;;;;;;;3.80;2.20;;;15.10;99.90;;;;;;4995276;28;20850;-79
2021/07/11 03:32:22;;;;;;;7.47;4.73;;;15.10;99.90;;;;;;4995345;28;20445;-79
2021/07/11 03:34:50;;;;;;;2.43;2.23;;;15.20;99.90;;;;;;4995176;28;20460;-80
2021/07/11 03:37:20;;;;;;;1.80;1.70;;;15.20;99.90;;;;;;4994849;28;20472;-79
2021/07/11 03:39:49;;;;;;;2.03;1.93;;;15.20;99.90;;;;;;4995135;28;20472;-80
2021/07/11 03:42:18;;;;;;;2.33;2.00;;;15.20;99.90;;;;;;4995049;28;20453;-79
2021/07/11 03:44:49;;;;;;;2.57;2.37;;;15.20;99.90;;;;;;4995012;28;20463;-79
2021/07/11 03:47:19;;;;;;;2.93;2.70;;;15.20;99.90;;;;;;4994995;28;20433;-79
2021/07/11 03:49:49;;;;;;;3.20;1.57;;;15.20;99.90;;;;;;4994586;28;20463;-80
2021/07/11 03:52:20;;;;;;;2.23;2.13;;;15.20;99.90;;;;;;4994649;28;20417;-80
2021/07/11 03:54:49;;;;;;;2.27;2.07;;;15.20;99.90;;;;;;4994587;28;20916;-79
2021/07/11 03:57:16;;;;;;;2.07;1.97;;;15.20;99.90;;;;;;4994472;28;20484;-79
2021/07/11 03:59:46;;;;;;;2.00;1.90;;;15.30;99.90;;;;;;4994853;28;20476;-79
2021/07/11 04:02:14;;;;;;;2.20;2.10;;;15.30;99.90;;;;;;4994467;28;20587;-80
2021/07/11 04:04:43;;;;;;;2.10;2.00;;;15.20;99.90;;;;;;4994883;28;20452;-79
2021/07/11 04:07:11;;;;;;;1.50;1.40;;;15.20;99.90;;;;;;4994628;28;20449;-80
2021/07/11 04:09:40;;;;;;;2.10;1.90;;;15.20;99.90;;;;;;4994275;28;20460;-79
2021/07/11 04:12:09;;;;;;;2.57;2.07;;;15.30;99.90;;;;;;4994251;28;20437;-83
2021/07/11 04:14:36;;;;;;;1.83;1.73;;;15.30;99.90;;;;;;4994485;28;20452;-84
2021/07/11 04:17:08;;;;;;;6.53;1.83;;;15.30;99.90;;;;;;4994058;28;21030;-84
2021/07/11 04:19:36;;;;;;;2.40;2.23;;;15.30;99.90;;;;;;4994054;28;20820;-84
2021/07/11 04:22:06;;;;;;;2.53;2.10;;;15.40;99.90;;;;;;4994295;28;20968;-84
2021/07/11 04:24:35;;;;;;;2.17;2.00;;;15.40;99.90;;;;;;4994305;28;20492;-83
2021/07/11 04:27:04;;;;;;;2.70;2.30;;;15.40;99.90;;;;;;4994320;28;20449;-84
2021/07/11 04:29:33;;;;;;;3.10;2.20;;;15.40;99.90;;;;;;4993950;28;20453;-84
2021/07/11 04:32:01;;;;;;;2.13;1.97;;;15.40;99.90;;;;;;4994815;28;20456;-84
2021/07/11 04:34:29;;;;;;;5.20;1.90;;;15.50;99.90;;;;;;4994145;28;20448;-84
2021/07/11 04:36:59;;;;;;;1.53;1.43;;;15.50;99.90;;;;;;4994156;28;20487;-84
2021/07/11 04:39:25;;;;;;;2.00;1.90;;;15.50;99.90;;;;;;4993803;28;20971;-84
2021/07/11 04:41:52;;;;;;;1.83;1.73;;;15.40;99.90;;;;;;4994358;28;20452;-84
2021/07/11 04:44:21;;;;;;;5.40;2.27;;;15.40;99.90;;;;;;4993838;28;20453;-84
2021/07/11 04:46:47;;;;;;;3.43;1.50;;;15.40;99.90;;;;;;4994102;28;20452;-84
2021/07/11 04:49:14;;;;;;;2.40;1.40;;;15.50;99.90;;;;;;4994235;28;20591;-83
2021/07/11 04:51:41;;;;;;;1.80;1.70;;;15.50;99.90;;;;;;4993777;28;20948;-84
2021/07/11 04:54:09;;;;;;;1.77;1.67;;;15.50;99.90;;;;;;4993728;28;20451;-84
2021/07/11 04:56:37;;;;;;;2.27;2.00;;;15.50;99.90;;;;;;4994077;28;20794;-84
2021/07/11 04:59:04;;;;;;;1.80;1.70;;;15.50;99.90;;;;;;4993911;28;20476;-83
2021/07/11 05:01:32;;;;;;;2.50;2.30;;;15.50;99.90;;;;;;4993544;28;20496;-83
2021/07/11 05:03:59;;;;;;;2.30;2.07;;;15.50;99.90;;;;;;4993608;28;20456;-84
2021/07/11 05:06:26;;;;;;;2.27;2.07;;;15.60;99.90;;;;;;4994282;28;20487;-83
2021/07/11 05:08:53;;;;;;;6.10;2.30;;;15.60;99.90;;;;;;4993484;28;20472;-83
2021/07/11 05:11:19;;;;;;;4.03;2.17;;;15.50;99.90;;;;;;4993570;28;20959;-83
2021/07/11 05:13:46;;;;;;;2.30;2.20;;;15.50;99.90;;;;;;4993815;28;20947;-83
2021/07/11 05:16:13;;;;;;;2.43;2.23;;;15.60;99.90;;;;;;4994103;28;20448;-83
2021/07/11 05:18:41;;;;;;;2.03;1.70;;;15.60;99.90;;;;;;4993381;28;20995;-83
2021/07/11 05:21:08;;;;;;;2.03;1.93;;;15.70;99.90;;;;;;4993858;28;20432;-83
2021/07/11 05:23:35;;;;;;;3.47;2.43;;;15.80;99.90;;;;;;4993892;28;20460;-83
2021/07/11 05:26:02;;;;;;;2.27;2.17;;;15.90;99.90;;;;;;4993795;28;20453;-83
2021/07/11 05:28:28;;;;;;;1.80;1.70;;;16.00;99.90;;;;;;4993640;28;20472;-83
2021/07/11 05:30:55;;;;;;;3.83;1.67;;;16.00;99.90;;;;;;4994480;28;20463;-82
2021/07/11 05:33:24;;;;;;;1.67;1.57;;;16.00;99.90;;;;;;4997569;28;20448;-81
2021/07/11 05:35:52;;;;;;;2.00;1.90;;;16.10;99.90;;;;;;4997368;28;20547;-82
2021/07/11 05:38:19;;;;;;;2.40;2.20;;;16.10;99.90;;;;;;4997208;28;20865;-82
2021/07/11 05:40:45;;;;;;;2.20;1.53;;;16.20;99.90;;;;;;4997414;28;20436;-80
2021/07/11 05:43:12;;;;;;;2.27;1.77;;;16.20;99.90;;;;;;4997162;28;20414;-80
2021/07/11 05:45:39;;;;;;;2.60;1.93;;;16.20;99.90;;;;;;4997339;28;20427;-81
2021/07/11 05:48:07;;;;;;;2.23;1.80;;;16.20;99.90;;;;;;4997088;28;21061;-79
2021/07/11 05:50:33;;;;;;;1.80;1.70;;;16.20;99.90;;;;;;4997200;28;20795;-79
2021/07/11 05:53:02;;;;;;;2.50;2.30;;;16.30;99.90;;;;;;4997214;28;20428;-79
2021/07/11 05:55:28;;;;;;;2.03;1.93;;;16.40;99.90;;;;;;4997188;28;20437;-80
2021/07/11 05:57:55;;;;;;;1.80;1.70;;;16.50;99.90;;;;;;4996807;28;22473;-79
2021/07/11 06:00:22;;;;;;;1.40;1.30;;;16.60;99.90;;;;;;4997134;28;20413;-80
2021/07/11 06:02:49;;;;;;;1.80;1.70;;;16.90;99.90;;;;;;4996780;28;20484;-79
2021/07/11 06:05:16;;;;;;;6.43;2.40;;;17.10;99.90;;;;;;4996990;28;20433;-78
2021/07/11 06:07:42;;;;;;;1.80;1.70;;;17.20;99.90;;;;;;4996813;28;20450;-79
2021/07/11 06:10:11;;;;;;;1.70;1.60;;;17.40;99.90;;;;;;4996830;28;20452;-79
2021/07/11 06:12:38;;;;;;;1.73;1.43;;;17.60;99.90;;;;;;4996621;28;20791;-79
2021/07/11 06:15:06;;;;;;;2.77;2.30;;;17.70;99.90;;;;;;4997164;28;20452;-79
2021/07/11 06:17:34;;;;;;;2.30;1.93;;;17.80;99.90;;;;;;4996360;28;20992;-79
2021/07/11 06:20:01;;;;;;;3.00;1.70;;;17.90;99.90;;;;;;4996660;28;20452;-79
2021/07/11 06:22:28;;;;;;;1.60;1.50;;;18.10;99.90;;;;;;4996587;28;20456;-79
2021/07/11 06:24:55;;;;;;;2.40;1.40;;;18.30;99.90;;;;;;4996572;28;20440;-79
2021/07/11 06:27:23;;;;;;;3.17;1.93;;;18.40;99.90;;;;;;4996495;28;20461;-79
2021/07/11 06:29:51;;;;;;;1.50;1.40;;;18.50;99.90;;;;;;4996189;28;20463;-79
2021/07/11 06:32:18;;;;;;;1.80;1.70;;;18.70;99.90;;;;;;4996421;28;20463;-79
2021/07/11 06:34:44;;;;;;;2.00;1.57;;;18.70;99.90;;;;;;4996147;28;20428;-79
2021/07/11 06:37:11;;;;;;;1.80;1.70;;;18.70;99.90;;;;;;4996262;28;20460;-79
2021/07/11 06:39:38;;;;;;;1.70;1.60;;;18.80;99.90;;;;;;4996213;28;21005;-79
2021/07/11 06:42:05;;;;;;;6.63;1.53;;;18.90;99.90;;;;;;4995503;28;20464;-79
2021/07/11 06:44:33;;;;;;;1.10;1.10;;;19.10;99.90;;;;;;4995550;28;20444;-79
2021/07/11 06:47:00;;;;;;;1.70;1.60;;;19.20;99.90;;;;;;4996169;28;20448;-79
2021/07/11 06:49:26;;;;;;;1.87;1.47;;;19.30;99.90;;;;;;4996014;28;20468;-79
2021/07/11 06:51:53;;;;;;;2.83;1.63;;;19.30;99.90;;;;;;4995831;28;20448;-80
2021/07/11 06:54:20;;;;;;;2.33;2.13;;;19.30;99.90;;;;;;4996031;28;20452;-79
2021/07/11 06:56:47;;;;;;;4.90;1.50;;;19.30;99.90;;;;;;4995998;28;20465;-80
2021/07/11 06:59:13;;;;;;;1.80;1.70;;;19.40;99.90;;;;;;4995623;28;20488;-80
2021/07/11 07:01:41;;;;;;;1.23;1.13;;;19.60;99.90;;;;;;4995571;28;20487;-80
2021/07/11 07:04:08;;;;;;;2.00;1.90;;;19.70;99.90;;;;;;4995607;28;20440;-80
2021/07/11 07:06:35;;;;;;;1.93;1.30;;;19.80;99.90;;;;;;4995534;28;20440;-80
2021/07/11 07:09:02;;;;;;;1.63;1.53;;;19.90;99.90;;;;;;4995482;28;20464;-81
2021/07/11 07:11:28;;;;;;;1.40;1.40;;;19.90;99.90;;;;;;4995745;28;20442;-80
2021/07/11 07:13:55;;;;;;;6.07;3.07;;;20.00;99.90;;;;;;4995406;28;20447;-80
2021/07/11 07:16:22;;;;;;;1.97;1.87;;;19.80;99.90;;;;;;4995618;28;20457;-80
2021/07/11 07:18:50;;;;;;;1.83;1.73;;;19.70;99.90;;;;;;4995241;28;21021;-80
2021/07/11 07:21:17;;;;;;;1.50;1.40;;;19.60;99.90;;;;;;4995264;28;20440;-80
2021/07/11 07:23:44;;;;;;;1.57;1.47;;;19.50;99.90;;;;;;4995255;28;20963;-80
2021/07/11 07:26:11;;;;;;;1.57;1.47;;;19.60;99.90;;;;;;4995703;28;20444;-80
2021/07/11 07:28:38;;;;;;;2.17;1.40;;;19.60;99.90;;;;;;4995282;28;20549;-80
2021/07/11 07:31:05;;;;;;;1.87;1.77;;;19.60;99.90;;;;;;4995309;28;20436;-79
2021/07/11 07:33:31;;;;;;;1.80;1.70;;;19.70;99.90;;;;;;4995358;28;20417;-79
2021/07/11 07:36:00;;;;;;;1.50;1.40;;;19.90;99.90;;;;;;4995045;28;20417;-80
2021/07/11 07:38:26;;;;;;;1.20;1.10;;;20.00;99.90;;;;;;4994773;28;20881;-80
2021/07/11 07:40:53;;;;;;;1.40;1.30;;;20.10;99.90;;;;;;4996036;28;20523;-80
2021/07/11 07:43:20;;;;;;;1.73;1.63;;;20.20;99.90;;;;;;4994801;28;20435;-80
2021/07/11 07:45:47;;;;;;;1.37;1.27;;;20.50;99.90;;;;;;4995119;28;20432;-80
2021/07/11 07:48:14;;;;;;;1.50;1.40;;;20.80;99.90;;;;;;4995041;28;20460;-80
2021/07/11 07:50:41;;;;;;;1.63;1.37;;;21.00;99.90;;;;;;4994736;28;20787;-80
2021/07/11 07:53:09;;;;;;;1.53;1.40;;;21.10;99.90;;;;;;4994880;28;20439;-80
2021/07/11 07:55:36;;;;;;;1.70;1.60;;;21.00;99.90;;;;;;4994676;28;20444;-80
2021/07/11 07:58:03;;;;;;;3.30;1.60;;;20.60;99.90;;;;;;4994721;28;20494;-80
2021/07/11 08:00:30;;;;;;;1.70;1.60;;;20.40;99.90;;;;;;4994768;28;20428;-81
2021/07/11 08:02:59;;;;;;;1.10;1.10;;;20.10;99.90;;;;;;4994842;28;20412;-80
2021/07/11 08:05:26;;;;;;;3.50;1.27;;;19.90;99.90;;;;;;4994551;28;20893;-80
2021/07/11 08:07:53;;;;;;;4.13;1.50;;;19.60;99.90;;;;;;4994646;28;20439;-80
2021/07/11 08:10:21;;;;;;;1.17;1.10;;;19.40;99.90;;;;;;4994700;28;20427;-80
2021/07/11 08:12:48;;;;;;;2.20;1.50;;;19.20;99.90;;;;;;4994573;28;20432;-80
2021/07/11 08:15:17;;;;;;;1.90;1.80;;;19.10;99.90;;;;;;4994576;28;20441;-80
2021/07/11 08:17:44;;;;;;;1.60;1.37;;;19.00;99.90;;;;;;4994352;28;20416;-80
2021/07/11 08:20:12;;;;;;;1.60;1.50;;;18.90;99.90;;;;;;4994042;28;20917;-78
2021/07/11 08:22:39;;;;;;;1.67;1.40;;;18.80;99.90;;;;;;4994124;28;20447;-79
2021/07/11 08:25:08;;;;;;;1.60;1.50;;;18.70;99.90;;;;;;4994143;28;20414;-78
2021/07/11 08:27:37;;;;;;;1.40;1.30;;;18.60;99.90;;;;;;4994359;28;20441;-78
2021/07/11 08:30:05;;;;;;;1.53;1.43;;;18.60;99.90;;;;;;4995033;28;20456;-78
2021/07/11 08:32:32;;;;;;;2.13;1.97;;;18.50;99.90;;;;;;4994419;28;20444;-78
2021/07/11 08:34:59;;;;;;;1.50;1.40;;;18.50;99.90;;;;;;4994255;28;20428;-78
2021/07/11 08:37:26;;;;;;;1.60;1.50;;;18.60;99.90;;;;;;4994000;28;20418;-78
2021/07/11 08:39:53;;;;;;;1.40;1.30;;;18.60;99.90;;;;;;4994344;28;20484;-78
2021/07/11 08:42:23;;;;;;;1.80;1.30;;;18.60;99.90;;;;;;4994156;28;20459;-78
2021/07/11 08:44:52;;;;;;;3.70;2.30;;;18.70;99.90;;;;;;4994117;28;20433;-78
2021/07/11 08:47:19;;;;;;;2.37;2.17;;;18.90;99.90;;;;;;4993781;28;20924;-78
2021/07/11 08:49:47;;;;;;;1.40;1.30;;;19.00;99.90;;;;;;4994004;28;20473;-78
2021/07/11 08:52:14;;;;;;;2.20;1.80;;;19.20;99.90;;;;;;4994069;28;20436;-78
2021/07/11 08:54:41;;;;;;;1.80;1.70;;;19.40;99.90;;;;;;4994414;28;20453;-78
2021/07/11 08:57:10;;;;;;;2.03;1.40;;;19.60;99.90;;;;;;4994026;28;20436;-78
2021/07/11 08:59:38;;;;;;;1.40;1.30;;;19.90;99.90;;;;;;4993859;28;20519;-78
2021/07/11 09:02:07;;;;;;;1.40;1.30;;;20.10;99.90;;;;;;4993606;28;20474;-78
2021/07/11 09:04:39;;;;;;;1.53;1.43;;;20.10;99.90;;;;;;4993814;28;20813;-78
2021/07/11 09:07:06;;;;;;;2.03;1.93;;;20.20;99.90;;;;;;4996861;28;20440;-78
2021/07/11 09:09:35;;;;;;;2.93;2.07;;;20.30;99.90;;;;;;4997707;28;20840;-78
2021/07/11 09:12:05;;;;;;;1.17;1.07;;;20.30;99.90;;;;;;4997645;28;20908;-79
2021/07/11 09:14:34;;;;;;;1.90;1.80;;;20.30;99.90;;;;;;4997640;28;20943;-79
2021/07/11 09:17:02;;;;;;;1.90;1.80;;;20.30;99.90;;;;;;4997867;28;20439;-79
2021/07/11 09:19:32;;;;;;;1.77;1.67;;;20.50;99.90;;;;;;4997409;28;20487;-79
2021/07/11 09:22:01;;;;;;;1.20;1.20;;;20.80;99.90;;;;;;4998556;28;20931;-79
2021/07/11 09:24:30;;;;;;;2.20;1.73;;;21.00;99.90;;;;;;4997749;28;20440;-79
2021/07/11 09:27:06;;;;;;;1.33;1.23;;;21.10;99.90;;;;;;4997726;28;20428;-79
2021/07/11 09:29:33;;;;;;;2.40;1.27;;;21.20;99.90;;;;;;4997553;28;20467;-79
2021/07/11 09:32:00;;;;;;;2.47;1.43;;;21.20;99.90;;;;;;4997317;28;20523;-79
2021/07/11 09:34:28;;;;;;;1.50;1.20;;;21.40;99.90;;;;;;4997685;28;20456;-80
2021/07/11 09:37:12;;;;;;;1.00;1.00;;;21.50;99.90;;;;;;4997219;28;20927;-79
2021/07/11 09:39:47;;;;;;;1.43;1.00;;;21.60;99.90;;;;;;4997341;28;20500;-79
2021/07/11 09:42:25;;;;;;;1.27;1.17;;;21.80;99.90;;;;;;4997117;28;20432;-80
2021/07/11 09:44:52;;;;;;;1.33;1.23;;;22.10;99.90;;;;;;4997540;28;20432;-80
2021/07/11 09:47:20;;;;;;;1.30;1.20;;;22.30;99.90;;;;;;4997558;28;20428;-80
2021/07/11 09:50:01;;;;;;;1.30;1.20;;;22.40;99.90;;;;;;4997215;28;20225;-80
2021/07/11 09:52:32;;;;;;;1.80;1.70;;;22.40;99.90;;;;;;4997282;28;20189;-80
2021/07/11 09:55:01;;;;;;;1.50;1.33;;;22.40;99.90;;;;;;4997276;28;20291;-80
2021/07/11 09:57:32;;;;;;;1.53;1.17;;;22.50;99.90;;;;;;4997169;28;20219;-80
2021/07/11 10:00:19;;;;;;;1.20;1.10;;;22.50;99.90;;;;;;4996932;28;20243;-80
2021/07/11 10:02:48;;;;;;;1.07;1.00;;;22.20;99.90;;;;;;4996976;28;20251;-80
2021/07/11 10:05:17;;;;;;;1.40;1.30;;;21.80;99.90;;;;;;4996463;28;20196;-80
2021/07/11 10:07:45;;;;;;;1.30;1.20;;;21.50;99.90;;;;;;4996527;28;20440;-80
2021/07/11 10:10:15;;;;;;;1.40;1.30;;;21.20;99.90;;;;;;4996563;28;20413;-79
2021/07/11 10:12:42;;;;;;;1.50;1.40;;;20.90;99.90;;;;;;4996514;28;20923;-82
2021/07/11 10:15:12;;;;;;;1.70;1.60;;;20.60;99.90;;;;;;4996717;28;20428;-84
2021/07/11 10:17:43;;;;;;;1.27;1.17;;;20.40;99.90;;;;;;4996330;28;20447;-84
2021/07/11 10:20:11;;;;;;;2.40;2.20;;;20.20;99.90;;;;;;4996285;28;20472;-83
2021/07/11 10:22:43;;;;;;;2.00;1.90;;;20.00;99.90;;;;;;4996619;28;20443;-83
2021/07/11 10:25:15;;;;;;;1.40;1.30;;;19.80;99.90;;;;;;4996290;28;20443;-84
2021/07/11 10:27:42;;;;;;;11.60;6.53;;;19.80;99.90;;;;;;4996518;28;20428;-84
2021/07/11 10:30:10;;;;;;;3.10;2.23;;;19.70;99.90;;;;;;4996462;28;20432;-81
2021/07/11 10:32:37;;;;;;;1.20;1.20;;;19.70;99.90;;;;;;4996524;28;20440;-81
2021/07/11 10:35:13;;;;;;;1.27;1.27;;;19.70;99.90;;;;;;4996351;28;20795;-81
2021/07/11 10:37:50;;;;;;;1.40;1.30;;;19.70;99.90;;;;;;4995964;28;20455;-81
2021/07/11 10:40:21;;;;;;;2.00;1.90;;;19.60;99.90;;;;;;4996173;28;20478;-81
2021/07/11 10:42:49;;;;;;;1.50;1.40;;;19.50;99.90;;;;;;4995996;28;20421;-81
2021/07/11 10:45:18;;;;;;;1.30;1.30;;;19.40;99.90;;;;;;4996163;28;20445;-80
2021/07/11 10:47:46;;;;;;;1.90;1.60;;;19.30;99.90;;;;;;4996044;28;20803;-81
2021/07/11 10:50:27;;;;;;;1.53;1.43;;;19.20;99.90;;;;;;4995834;28;20805;-81
2021/07/11 10:52:56;;;;;;;1.40;1.30;;;19.10;99.90;;;;;;4996059;28;20435;-80
2021/07/11 10:55:34;;;;;;;1.50;1.40;;;19.10;99.90;;;;;;4995715;28;20923;-80
2021/07/11 10:58:11;;;;;;;1.43;1.33;;;19.00;99.90;;;;;;4995896;28;20464;-81
2021/07/11 11:00:38;;;;;;;1.80;1.70;;;18.90;99.90;;;;;;4995401;28;20553;-81
2021/07/11 11:03:18;;;;;;;1.37;1.27;;;19.00;99.90;;;;;;4995801;28;20441;-80
2021/07/11 11:05:45;;;;;;;1.40;1.30;;;19.00;99.90;;;;;;4995633;28;20503;-80
2021/07/11 11:08:13;;;;;;;1.87;1.77;;;19.20;99.90;;;;;;4995167;28;20987;-80
2021/07/11 11:10:43;;;;;;;1.83;1.73;;;19.40;99.90;;;;;;4995634;28;20429;-80
2021/07/11 11:13:13;;;;;;;1.40;1.40;;;19.70;99.90;;;;;;4995815;28;20440;-80
2021/07/11 11:15:45;;;;;;;1.20;1.20;;;19.90;99.90;;;;;;4995602;28;20443;-80
2021/07/11 11:18:14;;;;;;;2.10;1.37;;;20.30;99.90;;;;;;4995450;28;20484;-80
2021/07/11 11:20:40;;;;;;;1.27;1.20;;;20.60;99.90;;;;;;4995017;28;20482;-80
2021/07/11 11:23:09;;;;;;;1.63;1.50;;;20.60;99.90;;;;;;4995208;28;20912;-80
2021/07/11 11:25:36;;;;;;;1.47;1.37;;;20.60;99.90;;;;;;4995453;28;20835;-81
2021/07/11 11:28:04;;;;;;;1.00;1.00;;;20.40;99.90;;;;;;4994826;28;20452;-81
2021/07/11 11:30:31;;;;;;;1.77;1.40;;;20.30;99.90;;;;;;4994974;28;20436;-82
2021/07/11 11:32:59;;;;;;;1.30;1.30;;;20.20;99.90;;;;;;4995110;28;20416;-81
2021/07/11 11:35:28;;;;;;;1.40;1.30;;;20.10;99.90;;;;;;4995293;28;20443;-82
2021/07/11 11:37:57;;;;;;;1.90;1.20;;;20.00;99.90;;;;;;4995192;28;20787;-82
2021/07/11 11:40:25;;;;;;;1.47;1.37;;;19.90;99.90;;;;;;4994795;28;20476;-82
2021/07/11 11:42:55;;;;;;;2.30;1.50;;;19.80;99.90;;;;;;4995041;28;20447;-82
2021/07/11 11:45:26;;;;;;;1.23;1.13;;;19.70;99.90;;;;;;4995027;28;20441;-82
2021/07/11 11:48:01;;;;;;;1.10;1.00;;;19.70;99.90;;;;;;4994885;28;20433;-82
2021/07/11 11:50:29;;;;;;;1.10;1.10;;;19.80;99.90;;;;;;4994632;28;20801;-82
2021/07/11 11:53:08;;;;;;;1.00;1.00;;;19.80;99.90;;;;;;4994907;28;20447;-82
2021/07/11 11:55:36;;;;;;;1.60;1.43;;;20.00;99.90;;;;;;4994876;28;20432;-81
2021/07/11 11:58:05;;;;;;;1.47;1.30;;;20.20;99.90;;;;;;4994422;28;20472;-83
2021/07/11 12:00:34;;;;;;;1.20;1.10;;;20.40;99.90;;;;;;4994529;28;20475;-83
2021/07/11 12:03:02;;;;;;;1.23;1.23;;;20.60;99.90;;;;;;4994764;28;20440;-83
2021/07/11 12:05:31;;;;;;;1.13;1.13;;;20.80;99.90;;;;;;4994345;28;20443;-82
2021/07/11 12:07:59;;;;;;;1.37;1.30;;;21.10;99.90;;;;;;4994409;28;20968;-82
2021/07/11 12:10:27;;;;;;;1.30;1.20;;;21.30;99.90;;;;;;4994631;28;20432;-82
2021/07/11 12:12:55;;;;;;;0.93;0.90;;;21.60;99.90;;;;;;4994269;28;20916;-83
2021/07/11 12:15:29;;;;;;;1.50;1.40;;;21.60;99.90;;;;;;4994565;28;20440;-84
2021/07/11 12:18:05;;;;;;;1.20;1.10;;;21.80;99.90;;;;;;4994268;28;20760;-82
2021/07/11 12:20:32;;;;;;;1.90;1.10;;;21.70;99.90;;;;;;4994395;28;20563;-82
2021/07/11 12:22:59;;;;;;;1.30;1.30;;;21.60;99.90;;;;;;4994228;28;20777;-81
2021/07/11 12:25:28;;;;;;;1.30;1.20;;;21.50;99.90;;;;;;4994367;28;20810;-81
2021/07/11 12:28:01;;;;;;;1.77;1.50;;;21.40;99.90;;;;;;4994035;28;20926;-81
2021/07/11 12:30:35;;;;;;;1.63;1.20;;;21.20;99.90;;;;;;4994278;28;20451;-81
2021/07/11 12:33:07;;;;;;;1.50;1.40;;;21.00;99.90;;;;;;4994027;28;20439;-82
2021/07/11 12:35:44;;;;;;;3.20;1.83;;;20.70;99.90;;;;;;4994205;28;20480;-81
2021/07/11 12:38:10;;;;;;;7.17;2.13;;;20.30;99.90;;;;;;4994113;28;20471;-79
2021/07/11 12:40:38;;;;;;;4.70;1.70;;;19.90;99.90;;;;;;4994030;28;20468;-79
2021/07/11 12:43:07;;;;;;;5.03;2.37;;;19.50;99.90;;;;;;4994214;28;20487;-80
2021/07/11 12:45:34;;;;;;;1.50;1.40;;;19.10;99.90;;;;;;4994091;28;20432;-80
2021/07/11 12:48:01;;;;;;;1.93;1.67;;;18.80;99.90;;;;;;4993632;28;20483;-80
2021/07/11 12:50:35;;;;;;;1.37;1.37;;;18.50;99.90;;;;;;4993775;28;20778;-80
2021/07/11 12:53:03;;;;;;;2.30;2.10;;;18.30;99.90;;;;;;4993973;28;20441;-81
2021/07/11 12:55:30;;;;;;;2.10;2.00;;;18.20;99.90;;;;;;4993647;28;20447;-80